メインページ
METAR-TAF:

METAR-TAF

空港 :

ドバイ国際空港

ドバイ, アラブ首長国連邦

緯度: 25-15-10N, 経度: 055-21-52E, 海抜: 8m

現時点の気象観測

当レポートは31分前の14:00(UTC)に作成
西/南西の風 8kt
気温 38°C
湿度 31%
気圧 995 hPa
視程: 7000m

METAR: OMDB 201400Z 25008KT 7000 NSC 38/18 Q0995 NOSIG

時間: 18:31 (14:31 UTC)

予報

当レポートは3時間40分前の10:51(UTC)に作成
予報は20日の 12時(UTC)から 21日の 18時(UTC)まで有効
西/北西の風 12kt
視程: 8000m
20日の 15時(UTC)から 20日の 17時(UTC)まで徐々に
南東の風 5kt
21日の 06時(UTC)から 21日の 08時(UTC)まで徐々に
西/北西の風 12kt
21日の 15時(UTC)から 21日の 17時(UTC)まで徐々に
の風 5kt

TAF: OMDB 201051Z 2012/2118 29012KT 8000 NSC BECMG 2015/2017 14005KT BECMG 2106/2108 30012KT BECMG 2115/2117 08005KT

4,000以上の空港の気象観測と天気予報(METAR報とTAF報)

利用可能な観測所は地図上に黄色い丸と赤い丸で示す。

丸の上にカーソルを重ねると観測所名を参照できる。

次にクリックすると気象観測と天気予報を参照できる。

マップの切り替え:黒色「×」印の緑ボタンをクリックして拡大、「-」印の緑ボタンをクリックして縮小、緑色の三角印をクリックして隣りの地図に切り替え


METAR-TAF: